sensor_id;sensor_type;location;lat;lon;timestamp;P1;durP1;ratioP1;P2;durP2;ratioP2
77612;SDS011;66777;52.282;5.960;2023-04-03T00:01:13;4.43;;;1.88;;
77612;SDS011;66777;52.282;5.960;2023-04-03T00:03:39;4.22;;;1.75;;
77612;SDS011;66777;52.282;5.960;2023-04-03T00:06:07;3.63;;;1.58;;
77612;SDS011;66777;52.282;5.960;2023-04-03T00:08:34;3.80;;;1.63;;
77612;SDS011;66777;52.282;5.960;2023-04-03T00:11:01;4.35;;;1.70;;
77612;SDS011;66777;52.282;5.960;2023-04-03T00:13:27;4.20;;;1.75;;
77612;SDS011;66777;52.282;5.960;2023-04-03T00:15:53;4.88;;;1.52;;
77612;SDS011;66777;52.282;5.960;2023-04-03T00:18:19;4.68;;;1.75;;
77612;SDS011;66777;52.282;5.960;2023-04-03T00:20:45;4.05;;;1.75;;
77612;SDS011;66777;52.282;5.960;2023-04-03T00:23:11;4.88;;;1.40;;
77612;SDS011;66777;52.282;5.960;2023-04-03T00:25:37;3.80;;;1.77;;
77612;SDS011;66777;52.282;5.960;2023-04-03T00:28:03;3.83;;;1.52;;
77612;SDS011;66777;52.282;5.960;2023-04-03T00:30:30;3.50;;;1.30;;
77612;SDS011;66777;52.282;5.960;2023-04-03T00:32:57;4.72;;;2.00;;
77612;SDS011;66777;52.282;5.960;2023-04-03T00:35:23;5.25;;;1.75;;
77612;SDS011;66777;52.282;5.960;2023-04-03T00:37:53;6.63;;;2.08;;
77612;SDS011;66777;52.282;5.960;2023-04-03T00:40:20;4.03;;;2.05;;
77612;SDS011;66777;52.282;5.960;2023-04-03T00:42:48;3.72;;;1.55;;
77612;SDS011;66777;52.282;5.960;2023-04-03T00:45:24;3.53;;;1.52;;
77612;SDS011;66777;52.282;5.960;2023-04-03T00:47:56;4.93;;;1.58;;
77612;SDS011;66777;52.282;5.960;2023-04-03T00:50:25;3.60;;;1.63;;
77612;SDS011;66777;52.282;5.960;2023-04-03T00:52:52;6.90;;;1.73;;
77612;SDS011;66777;52.282;5.960;2023-04-03T00:55:18;4.13;;;1.77;;
77612;SDS011;66777;52.282;5.960;2023-04-03T00:57:45;4.82;;;1.77;;
77612;SDS011;66777;52.282;5.960;2023-04-03T01:00:14;3.80;;;1.65;;
77612;SDS011;66777;52.282;5.960;2023-04-03T01:02:44;5.55;;;1.60;;
77612;SDS011;66777;52.282;5.960;2023-04-03T01:05:10;4.13;;;1.45;;
77612;SDS011;66777;52.282;5.960;2023-04-03T01:07:37;6.07;;;2.28;;
77612;SDS011;66777;52.282;5.960;2023-04-03T01:10:06;3.75;;;1.52;;
77612;SDS011;66777;52.282;5.960;2023-04-03T01:12:36;4.10;;;1.63;;
77612;SDS011;66777;52.282;5.960;2023-04-03T01:15:11;3.60;;;1.48;;
77612;SDS011;66777;52.282;5.960;2023-04-03T01:17:55;3.42;;;1.55;;
77612;SDS011;66777;52.282;5.960;2023-04-03T01:25:37;4.63;;;1.65;;
77612;SDS011;66777;52.282;5.960;2023-04-03T01:28:06;4.80;;;1.52;;
77612;SDS011;66777;52.282;5.960;2023-04-03T01:30:36;6.28;;;1.90;;
77612;SDS011;66777;52.282;5.960;2023-04-03T01:33:09;3.22;;;1.55;;
77612;SDS011;66777;52.282;5.960;2023-04-03T01:35:35;4.43;;;1.60;;
77612;SDS011;66777;52.282;5.960;2023-04-03T01:38:02;4.43;;;1.85;;
77612;SDS011;66777;52.282;5.960;2023-04-03T01:40:28;4.68;;;1.75;;
77612;SDS011;66777;52.282;5.960;2023-04-03T01:42:53;4.00;;;1.67;;
77612;SDS011;66777;52.282;5.960;2023-04-03T01:45:20;4.70;;;1.75;;
77612;SDS011;66777;52.282;5.960;2023-04-03T01:47:45;3.47;;;1.50;;
77612;SDS011;66777;52.282;5.960;2023-04-03T01:50:11;5.07;;;2.08;;
77612;SDS011;66777;52.282;5.960;2023-04-03T01:52:37;5.38;;;1.83;;
77612;SDS011;66777;52.282;5.960;2023-04-03T01:55:03;3.92;;;1.67;;
77612;SDS011;66777;52.282;5.960;2023-04-03T01:57:29;4.95;;;1.77;;
77612;SDS011;66777;52.282;5.960;2023-04-03T01:59:55;3.83;;;1.58;;
77612;SDS011;66777;52.282;5.960;2023-04-03T02:02:21;5.40;;;1.85;;
77612;SDS011;66777;52.282;5.960;2023-04-03T02:04:46;4.50;;;1.83;;
77612;SDS011;66777;52.282;5.960;2023-04-03T02:07:12;5.15;;;1.83;;
77612;SDS011;66777;52.282;5.960;2023-04-03T02:09:39;5.97;;;1.77;;
77612;SDS011;66777;52.282;5.960;2023-04-03T02:12:05;4.88;;;1.77;;
77612;SDS011;66777;52.282;5.960;2023-04-03T02:14:31;4.90;;;1.95;;
77612;SDS011;66777;52.282;5.960;2023-04-03T02:16:57;4.07;;;1.75;;
77612;SDS011;66777;52.282;5.960;2023-04-03T02:19:23;5.00;;;2.15;;
77612;SDS011;66777;52.282;5.960;2023-04-03T02:21:49;7.20;;;1.67;;
77612;SDS011;66777;52.282;5.960;2023-04-03T02:24:15;6.18;;;1.92;;
77612;SDS011;66777;52.282;5.960;2023-04-03T02:26:40;5.80;;;1.90;;
77612;SDS011;66777;52.282;5.960;2023-04-03T02:29:06;7.97;;;1.83;;
77612;SDS011;66777;52.282;5.960;2023-04-03T02:31:32;5.30;;;1.75;;
77612;SDS011;66777;52.282;5.960;2023-04-03T02:33:58;4.70;;;2.05;;
77612;SDS011;66777;52.282;5.960;2023-04-03T02:36:23;4.72;;;1.92;;
77612;SDS011;66777;52.282;5.960;2023-04-03T02:38:50;5.35;;;2.17;;
77612;SDS011;66777;52.282;5.960;2023-04-03T02:41:15;5.82;;;2.05;;
77612;SDS011;66777;52.282;5.960;2023-04-03T02:43:41;4.85;;;1.80;;
77612;SDS011;66777;52.282;5.960;2023-04-03T02:46:08;4.20;;;1.73;;
77612;SDS011;66777;52.282;5.960;2023-04-03T02:48:34;4.40;;;1.48;;
77612;SDS011;66777;52.282;5.960;2023-04-03T02:51:01;7.95;;;2.15;;
77612;SDS011;66777;52.282;5.960;2023-04-03T02:53:26;5.32;;;1.90;;
77612;SDS011;66777;52.282;5.960;2023-04-03T02:55:52;6.25;;;2.08;;
77612;SDS011;66777;52.282;5.960;2023-04-03T02:58:18;4.97;;;1.90;;
77612;SDS011;66777;52.282;5.960;2023-04-03T03:00:44;8.82;;;2.42;;
77612;SDS011;66777;52.282;5.960;2023-04-03T03:03:10;5.95;;;2.35;;
77612;SDS011;66777;52.282;5.960;2023-04-03T03:05:36;6.05;;;1.73;;
77612;SDS011;66777;52.282;5.960;2023-04-03T03:08:02;5.47;;;2.42;;
77612;SDS011;66777;52.282;5.960;2023-04-03T03:10:28;5.13;;;2.10;;
77612;SDS011;66777;52.282;5.960;2023-04-03T03:12:54;5.25;;;2.00;;
77612;SDS011;66777;52.282;5.960;2023-04-03T03:15:21;7.35;;;2.33;;
77612;SDS011;66777;52.282;5.960;2023-04-03T03:17:47;5.60;;;2.10;;
77612;SDS011;66777;52.282;5.960;2023-04-03T03:20:13;4.88;;;1.95;;
77612;SDS011;66777;52.282;5.960;2023-04-03T03:22:42;7.60;;;2.17;;
77612;SDS011;66777;52.282;5.960;2023-04-03T03:25:08;8.13;;;2.53;;
77612;SDS011;66777;52.282;5.960;2023-04-03T03:27:34;6.47;;;2.20;;
77612;SDS011;66777;52.282;5.960;2023-04-03T03:30:00;4.80;;;1.83;;
77612;SDS011;66777;52.282;5.960;2023-04-03T03:32:26;5.28;;;2.22;;
77612;SDS011;66777;52.282;5.960;2023-04-03T03:34:52;7.15;;;2.30;;
77612;SDS011;66777;52.282;5.960;2023-04-03T03:37:18;5.22;;;2.50;;
77612;SDS011;66777;52.282;5.960;2023-04-03T03:39:44;6.20;;;2.35;;
77612;SDS011;66777;52.282;5.960;2023-04-03T03:42:10;7.53;;;2.53;;
77612;SDS011;66777;52.282;5.960;2023-04-03T03:44:36;6.75;;;2.47;;
77612;SDS011;66777;52.282;5.960;2023-04-03T03:47:02;5.68;;;1.77;;
77612;SDS011;66777;52.282;5.960;2023-04-03T03:49:28;5.72;;;2.13;;
77612;SDS011;66777;52.282;5.960;2023-04-03T03:51:54;6.78;;;2.38;;
77612;SDS011;66777;52.282;5.960;2023-04-03T03:54:20;6.38;;;2.47;;
77612;SDS011;66777;52.282;5.960;2023-04-03T03:56:46;5.53;;;2.25;;
77612;SDS011;66777;52.282;5.960;2023-04-03T03:59:13;6.90;;;2.45;;
77612;SDS011;66777;52.282;5.960;2023-04-03T04:01:39;9.18;;;2.45;;
77612;SDS011;66777;52.282;5.960;2023-04-03T04:04:05;8.60;;;2.20;;
77612;SDS011;66777;52.282;5.960;2023-04-03T04:06:30;5.07;;;2.22;;
77612;SDS011;66777;52.282;5.960;2023-04-03T04:08:56;6.35;;;2.63;;
77612;SDS011;66777;52.282;5.960;2023-04-03T04:11:22;6.15;;;1.88;;
77612;SDS011;66777;52.282;5.960;2023-04-03T04:13:48;7.95;;;2.05;;
77612;SDS011;66777;52.282;5.960;2023-04-03T04:16:14;8.18;;;2.60;;
77612;SDS011;66777;52.282;5.960;2023-04-03T04:18:42;7.57;;;2.75;;
77612;SDS011;66777;52.282;5.960;2023-04-03T04:21:08;5.82;;;2.42;;
77612;SDS011;66777;52.282;5.960;2023-04-03T04:23:34;5.63;;;2.13;;
77612;SDS011;66777;52.282;5.960;2023-04-03T04:26:00;8.75;;;2.90;;
77612;SDS011;66777;52.282;5.960;2023-04-03T04:28:26;6.90;;;2.67;;
77612;SDS011;66777;52.282;5.960;2023-04-03T04:30:52;7.90;;;2.58;;
77612;SDS011;66777;52.282;5.960;2023-04-03T04:33:19;7.30;;;2.50;;
77612;SDS011;66777;52.282;5.960;2023-04-03T04:35:46;7.28;;;2.10;;
77612;SDS011;66777;52.282;5.960;2023-04-03T04:38:13;6.38;;;2.55;;
77612;SDS011;66777;52.282;5.960;2023-04-03T04:40:39;6.97;;;2.15;;
77612;SDS011;66777;52.282;5.960;2023-04-03T04:43:06;6.63;;;2.33;;
77612;SDS011;66777;52.282;5.960;2023-04-03T04:45:32;5.75;;;2.40;;
77612;SDS011;66777;52.282;5.960;2023-04-03T04:47:57;5.70;;;2.25;;
77612;SDS011;66777;52.282;5.960;2023-04-03T04:50:23;5.78;;;2.63;;
77612;SDS011;66777;52.282;5.960;2023-04-03T04:52:48;5.40;;;2.20;;
77612;SDS011;66777;52.282;5.960;2023-04-03T04:55:15;6.82;;;2.30;;
77612;SDS011;66777;52.282;5.960;2023-04-03T04:57:41;7.85;;;2.60;;
77612;SDS011;66777;52.282;5.960;2023-04-03T05:00:07;5.78;;;2.25;;
77612;SDS011;66777;52.282;5.960;2023-04-03T05:02:33;6.40;;;2.75;;
77612;SDS011;66777;52.282;5.960;2023-04-03T05:04:58;7.95;;;2.20;;
77612;SDS011;66777;52.282;5.960;2023-04-03T05:07:24;5.75;;;2.33;;
77612;SDS011;66777;52.282;5.960;2023-04-03T05:09:51;6.53;;;2.30;;
77612;SDS011;66777;52.282;5.960;2023-04-03T05:12:17;5.82;;;2.15;;
77612;SDS011;66777;52.282;5.960;2023-04-03T05:14:43;5.30;;;2.35;;
77612;SDS011;66777;52.282;5.960;2023-04-03T05:17:09;7.38;;;2.05;;
77612;SDS011;66777;52.282;5.960;2023-04-03T05:19:35;8.80;;;2.58;;
77612;SDS011;66777;52.282;5.960;2023-04-03T05:22:01;8.18;;;2.45;;
77612;SDS011;66777;52.282;5.960;2023-04-03T05:24:27;5.50;;;2.35;;
77612;SDS011;66777;52.282;5.960;2023-04-03T05:26:53;5.10;;;2.13;;
77612;SDS011;66777;52.282;5.960;2023-04-03T05:29:20;6.75;;;2.03;;
77612;SDS011;66777;52.282;5.960;2023-04-03T05:31:48;7.18;;;2.17;;
77612;SDS011;66777;52.282;5.960;2023-04-03T05:34:14;5.70;;;2.47;;
77612;SDS011;66777;52.282;5.960;2023-04-03T05:36:40;5.43;;;2.25;;
77612;SDS011;66777;52.282;5.960;2023-04-03T05:39:07;5.63;;;2.85;;
77612;SDS011;66777;52.282;5.960;2023-04-03T05:41:34;5.95;;;2.40;;
77612;SDS011;66777;52.282;5.960;2023-04-03T05:44:00;6.28;;;2.20;;
77612;SDS011;66777;52.282;5.960;2023-04-03T05:46:26;5.90;;;2.70;;
77612;SDS011;66777;52.282;5.960;2023-04-03T05:48:52;5.55;;;2.40;;
77612;SDS011;66777;52.282;5.960;2023-04-03T05:51:19;6.80;;;3.05;;
77612;SDS011;66777;52.282;5.960;2023-04-03T05:53:55;4.88;;;2.38;;
77612;SDS011;66777;52.282;5.960;2023-04-03T05:56:26;5.22;;;2.08;;
77612;SDS011;66777;52.282;5.960;2023-04-03T05:58:51;10.90;;;2.70;;
77612;SDS011;66777;52.282;5.960;2023-04-03T06:01:17;4.60;;;1.98;;
77612;SDS011;66777;52.282;5.960;2023-04-03T06:03:43;5.30;;;2.42;;
77612;SDS011;66777;52.282;5.960;2023-04-03T06:06:11;6.47;;;2.13;;
77612;SDS011;66777;52.282;5.960;2023-04-03T06:11:04;6.38;;;2.75;;
77612;SDS011;66777;52.282;5.960;2023-04-03T06:13:30;5.28;;;2.15;;
77612;SDS011;66777;52.282;5.960;2023-04-03T06:15:56;8.40;;;2.33;;
77612;SDS011;66777;52.282;5.960;2023-04-03T06:18:22;4.65;;;1.83;;
77612;SDS011;66777;52.282;5.960;2023-04-03T06:20:48;6.68;;;2.28;;
77612;SDS011;66777;52.282;5.960;2023-04-03T06:23:13;6.63;;;2.03;;
77612;SDS011;66777;52.282;5.960;2023-04-03T06:25:39;7.47;;;2.03;;
77612;SDS011;66777;52.282;5.960;2023-04-03T06:28:07;5.45;;;2.63;;
77612;SDS011;66777;52.282;5.960;2023-04-03T06:30:35;6.88;;;2.13;;
77612;SDS011;66777;52.282;5.960;2023-04-03T06:33:02;5.18;;;2.30;;
77612;SDS011;66777;52.282;5.960;2023-04-03T06:35:28;5.88;;;2.55;;
77612;SDS011;66777;52.282;5.960;2023-04-03T06:37:55;6.05;;;2.08;;
77612;SDS011;66777;52.282;5.960;2023-04-03T06:40:23;6.18;;;2.25;;
77612;SDS011;66777;52.282;5.960;2023-04-03T06:42:51;5.18;;;1.92;;
77612;SDS011;66777;52.282;5.960;2023-04-03T06:45:17;13.20;;;2.47;;
77612;SDS011;66777;52.282;5.960;2023-04-03T06:47:43;4.45;;;1.48;;
77612;SDS011;66777;52.282;5.960;2023-04-03T06:50:09;6.55;;;2.10;;
77612;SDS011;66777;52.282;5.960;2023-04-03T06:52:39;6.03;;;2.35;;
77612;SDS011;66777;52.282;5.960;2023-04-03T06:55:06;4.68;;;1.98;;
77612;SDS011;66777;52.282;5.960;2023-04-03T06:57:33;5.93;;;2.05;;
77612;SDS011;66777;52.282;5.960;2023-04-03T06:59:59;4.85;;;2.30;;
77612;SDS011;66777;52.282;5.960;2023-04-03T07:02:25;5.63;;;1.52;;
77612;SDS011;66777;52.282;5.960;2023-04-03T07:04:51;5.53;;;2.00;;
77612;SDS011;66777;52.282;5.960;2023-04-03T07:07:17;7.82;;;2.22;;
77612;SDS011;66777;52.282;5.960;2023-04-03T07:09:43;5.40;;;2.03;;
77612;SDS011;66777;52.282;5.960;2023-04-03T07:12:09;8.02;;;2.25;;
77612;SDS011;66777;52.282;5.960;2023-04-03T07:14:35;5.40;;;2.00;;
77612;SDS011;66777;52.282;5.960;2023-04-03T07:17:00;4.70;;;1.63;;
77612;SDS011;66777;52.282;5.960;2023-04-03T07:19:27;5.25;;;2.17;;
77612;SDS011;66777;52.282;5.960;2023-04-03T07:21:53;5.80;;;2.00;;
77612;SDS011;66777;52.282;5.960;2023-04-03T07:24:19;6.90;;;2.03;;
77612;SDS011;66777;52.282;5.960;2023-04-03T07:26:48;5.05;;;2.25;;
77612;SDS011;66777;52.282;5.960;2023-04-03T07:29:18;4.53;;;1.63;;
77612;SDS011;66777;52.282;5.960;2023-04-03T07:31:47;9.40;;;1.88;;
77612;SDS011;66777;52.282;5.960;2023-04-03T07:34:13;4.55;;;1.80;;
77612;SDS011;66777;52.282;5.960;2023-04-03T07:36:38;3.60;;;1.38;;
77612;SDS011;66777;52.282;5.960;2023-04-03T07:39:05;6.18;;;1.73;;
77612;SDS011;66777;52.282;5.960;2023-04-03T07:41:33;4.07;;;1.77;;
77612;SDS011;66777;52.282;5.960;2023-04-03T07:43:59;6.68;;;2.42;;
77612;SDS011;66777;52.282;5.960;2023-04-03T07:46:25;4.82;;;1.80;;
77612;SDS011;66777;52.282;5.960;2023-04-03T07:48:51;5.07;;;2.42;;
77612;SDS011;66777;52.282;5.960;2023-04-03T07:51:18;4.28;;;1.88;;
77612;SDS011;66777;52.282;5.960;2023-04-03T07:53:44;5.60;;;1.95;;
77612;SDS011;66777;52.282;5.960;2023-04-03T07:56:11;5.43;;;1.73;;
77612;SDS011;66777;52.282;5.960;2023-04-03T07:58:36;7.00;;;1.73;;
77612;SDS011;66777;52.282;5.960;2023-04-03T08:01:04;6.07;;;1.88;;
77612;SDS011;66777;52.282;5.960;2023-04-03T08:03:31;6.25;;;1.73;;
77612;SDS011;66777;52.282;5.960;2023-04-03T08:06:00;4.40;;;1.48;;
77612;SDS011;66777;52.282;5.960;2023-04-03T08:08:31;3.90;;;1.50;;
77612;SDS011;66777;52.282;5.960;2023-04-03T08:10:58;4.00;;;1.50;;
77612;SDS011;66777;52.282;5.960;2023-04-03T08:13:28;3.58;;;1.45;;
77612;SDS011;66777;52.282;5.960;2023-04-03T08:15:55;3.78;;;1.35;;
77612;SDS011;66777;52.282;5.960;2023-04-03T08:18:22;5.50;;;1.98;;
77612;SDS011;66777;52.282;5.960;2023-04-03T08:20:50;5.32;;;1.75;;
77612;SDS011;66777;52.282;5.960;2023-04-03T08:23:17;4.30;;;1.70;;
77612;SDS011;66777;52.282;5.960;2023-04-03T08:25:43;2.92;;;1.50;;
77612;SDS011;66777;52.282;5.960;2023-04-03T08:28:10;2.47;;;1.23;;
77612;SDS011;66777;52.282;5.960;2023-04-03T08:30:40;3.60;;;1.63;;
77612;SDS011;66777;52.282;5.960;2023-04-03T08:33:08;4.00;;;1.55;;
77612;SDS011;66777;52.282;5.960;2023-04-03T08:35:37;4.90;;;1.70;;
77612;SDS011;66777;52.282;5.960;2023-04-03T08:38:06;10.85;;;4.15;;
77612;SDS011;66777;52.282;5.960;2023-04-03T08:40:34;4.15;;;1.73;;
77612;SDS011;66777;52.282;5.960;2023-04-03T08:45:42;2.53;;;1.40;;
77612;SDS011;66777;52.282;5.960;2023-04-03T08:48:20;4.60;;;1.40;;
77612;SDS011;66777;52.282;5.960;2023-04-03T08:50:48;3.78;;;1.10;;
77612;SDS011;66777;52.282;5.960;2023-04-03T08:53:19;2.92;;;1.38;;
77612;SDS011;66777;52.282;5.960;2023-04-03T08:55:49;3.85;;;1.50;;
77612;SDS011;66777;52.282;5.960;2023-04-03T08:58:18;5.03;;;1.80;;
77612;SDS011;66777;52.282;5.960;2023-04-03T09:03:51;5.38;;;1.50;;
77612;SDS011;66777;52.282;5.960;2023-04-03T09:14:38;5.30;;;1.73;;
77612;SDS011;66777;52.282;5.960;2023-04-03T09:23:14;3.38;;;1.25;;
77612;SDS011;66777;52.282;5.960;2023-04-03T09:26:29;2.33;;;1.42;;
77612;SDS011;66777;52.282;5.960;2023-04-03T09:29:01;3.38;;;1.88;;
77612;SDS011;66777;52.282;5.960;2023-04-03T09:31:41;6.35;;;2.10;;
77612;SDS011;66777;52.282;5.960;2023-04-03T09:34:25;9.18;;;2.38;;
77612;SDS011;66777;52.282;5.960;2023-04-03T09:36:54;3.60;;;1.42;;
77612;SDS011;66777;52.282;5.960;2023-04-03T09:39:24;2.65;;;1.45;;
77612;SDS011;66777;52.282;5.960;2023-04-03T09:44:27;2.47;;;1.10;;
77612;SDS011;66777;52.282;5.960;2023-04-03T09:46:57;2.28;;;1.40;;
77612;SDS011;66777;52.282;5.960;2023-04-03T09:49:24;3.90;;;1.58;;
77612;SDS011;66777;52.282;5.960;2023-04-03T09:51:49;3.03;;;1.65;;
77612;SDS011;66777;52.282;5.960;2023-04-03T09:54:33;2.75;;;1.35;;
77612;SDS011;66777;52.282;5.960;2023-04-03T09:57:12;3.55;;;1.80;;
77612;SDS011;66777;52.282;5.960;2023-04-03T09:59:56;3.28;;;1.60;;
77612;SDS011;66777;52.282;5.960;2023-04-03T10:02:30;5.20;;;1.75;;
77612;SDS011;66777;52.282;5.960;2023-04-03T10:05:03;4.80;;;2.08;;
77612;SDS011;66777;52.282;5.960;2023-04-03T10:07:49;2.25;;;1.58;;
77612;SDS011;66777;52.282;5.960;2023-04-03T10:10:19;2.95;;;2.08;;
77612;SDS011;66777;52.282;5.960;2023-04-03T10:12:54;3.40;;;1.88;;
77612;SDS011;66777;52.282;5.960;2023-04-03T10:15:35;3.05;;;1.88;;
77612;SDS011;66777;52.282;5.960;2023-04-03T10:18:07;3.40;;;2.13;;
77612;SDS011;66777;52.282;5.960;2023-04-03T10:21:02;5.95;;;2.70;;
77612;SDS011;66777;52.282;5.960;2023-04-03T10:23:44;3.20;;;2.17;;
77612;SDS011;66777;52.282;5.960;2023-04-03T10:26:28;6.13;;;2.00;;
77612;SDS011;66777;52.282;5.960;2023-04-03T10:29:02;3.45;;;2.20;;
77612;SDS011;66777;52.282;5.960;2023-04-03T10:34:35;6.00;;;2.75;;
77612;SDS011;66777;52.282;5.960;2023-04-03T10:42:45;5.07;;;4.30;;
77612;SDS011;66777;52.282;5.960;2023-04-03T10:48:04;5.30;;;3.88;;
77612;SDS011;66777;52.282;5.960;2023-04-03T10:53:30;3.97;;;2.90;;
77612;SDS011;66777;52.282;5.960;2023-04-03T10:56:02;4.57;;;3.25;;
77612;SDS011;66777;52.282;5.960;2023-04-03T10:58:48;6.07;;;4.28;;
77612;SDS011;66777;52.282;5.960;2023-04-03T11:01:39;5.05;;;4.30;;
77612;SDS011;66777;52.282;5.960;2023-04-03T11:04:09;5.93;;;5.43;;
77612;SDS011;66777;52.282;5.960;2023-04-03T11:06:45;8.82;;;8.13;;
77612;SDS011;66777;52.282;5.960;2023-04-03T11:11:44;10.43;;;9.80;;
77612;SDS011;66777;52.282;5.960;2023-04-03T11:17:21;11.15;;;10.35;;
77612;SDS011;66777;52.282;5.960;2023-04-03T11:19:47;17.52;;;16.42;;
77612;SDS011;66777;52.282;5.960;2023-04-03T11:37:57;19.10;;;18.17;;
77612;SDS011;66777;52.282;5.960;2023-04-03T11:40:33;17.00;;;16.10;;
77612;SDS011;66777;52.282;5.960;2023-04-03T11:43:33;18.35;;;17.27;;
77612;SDS011;66777;52.282;5.960;2023-04-03T11:50:56;18.45;;;17.17;;
77612;SDS011;66777;52.282;5.960;2023-04-03T11:53:32;14.95;;;14.15;;
77612;SDS011;66777;52.282;5.960;2023-04-03T12:05:36;12.57;;;11.77;;
77612;SDS011;66777;52.282;5.960;2023-04-03T12:13:35;11.32;;;10.52;;
77612;SDS011;66777;52.282;5.960;2023-04-03T12:24:29;8.65;;;8.02;;
77612;SDS011;66777;52.282;5.960;2023-04-03T12:48:47;8.77;;;7.82;;
77612;SDS011;66777;52.282;5.960;2023-04-03T12:51:34;8.57;;;7.68;;
77612;SDS011;66777;52.282;5.960;2023-04-03T12:57:12;7.75;;;7.05;;
77612;SDS011;66777;52.282;5.960;2023-04-03T12:59:46;7.57;;;6.97;;
77612;SDS011;66777;52.282;5.960;2023-04-03T13:02:19;9.15;;;8.45;;
77612;SDS011;66777;52.282;5.960;2023-04-03T13:04:54;9.27;;;8.57;;
77612;SDS011;66777;52.282;5.960;2023-04-03T13:07:29;13.02;;;7.97;;
77612;SDS011;66777;52.282;5.960;2023-04-03T13:10:03;11.68;;;8.13;;
77612;SDS011;66777;52.282;5.960;2023-04-03T13:15:17;10.68;;;8.05;;
77612;SDS011;66777;52.282;5.960;2023-04-03T13:17:45;9.45;;;8.75;;
77612;SDS011;66777;52.282;5.960;2023-04-03T13:20:21;9.57;;;8.88;;
77612;SDS011;66777;52.282;5.960;2023-04-03T13:25:30;9.60;;;8.90;;
77612;SDS011;66777;52.282;5.960;2023-04-03T13:27:58;10.80;;;10.13;;
77612;SDS011;66777;52.282;5.960;2023-04-03T13:32:58;13.32;;;12.32;;
77612;SDS011;66777;52.282;5.960;2023-04-03T13:35:38;14.57;;;13.68;;
77612;SDS011;66777;52.282;5.960;2023-04-03T13:38:28;14.15;;;13.35;;
77612;SDS011;66777;52.282;5.960;2023-04-03T13:40:58;16.25;;;15.25;;
77612;SDS011;66777;52.282;5.960;2023-04-03T13:43:29;11.07;;;10.35;;
77612;SDS011;66777;52.282;5.960;2023-04-03T13:45:58;15.23;;;14.32;;
77612;SDS011;66777;52.282;5.960;2023-04-03T13:48:38;15.10;;;14.20;;
77612;SDS011;66777;52.282;5.960;2023-04-03T13:53:42;15.15;;;14.15;;
77612;SDS011;66777;52.282;5.960;2023-04-03T13:56:18;15.15;;;14.10;;
77612;SDS011;66777;52.282;5.960;2023-04-03T13:58:56;15.25;;;14.25;;
77612;SDS011;66777;52.282;5.960;2023-04-03T14:01:32;15.80;;;14.35;;
77612;SDS011;66777;52.282;5.960;2023-04-03T14:04:21;16.80;;;15.60;;
77612;SDS011;66777;52.282;5.960;2023-04-03T14:06:53;19.25;;;18.13;;
77612;SDS011;66777;52.282;5.960;2023-04-03T14:09:20;18.63;;;17.52;;
77612;SDS011;66777;52.282;5.960;2023-04-03T14:11:48;21.40;;;20.20;;
77612;SDS011;66777;52.282;5.960;2023-04-03T14:14:21;18.98;;;17.67;;
77612;SDS011;66777;52.282;5.960;2023-04-03T14:16:53;19.40;;;18.35;;
77612;SDS011;66777;52.282;5.960;2023-04-03T14:19:31;18.88;;;17.83;;
77612;SDS011;66777;52.282;5.960;2023-04-03T14:24:47;23.10;;;21.85;;
77612;SDS011;66777;52.282;5.960;2023-04-03T14:27:24;26.10;;;24.85;;
77612;SDS011;66777;52.282;5.960;2023-04-03T14:30:00;22.10;;;20.98;;
77612;SDS011;66777;52.282;5.960;2023-04-03T14:32:28;25.95;;;24.70;;
77612;SDS011;66777;52.282;5.960;2023-04-03T14:34:54;26.23;;;24.90;;
77612;SDS011;66777;52.282;5.960;2023-04-03T14:37:24;31.77;;;30.27;;
77612;SDS011;66777;52.282;5.960;2023-04-03T14:39:52;29.33;;;27.90;;
77612;SDS011;66777;52.282;5.960;2023-04-03T14:42:20;27.98;;;26.60;;
77612;SDS011;66777;52.282;5.960;2023-04-03T14:44:48;32.17;;;30.58;;
77612;SDS011;66777;52.282;5.960;2023-04-03T14:47:25;26.58;;;25.17;;
77612;SDS011;66777;52.282;5.960;2023-04-03T14:49:53;29.00;;;27.42;;
77612;SDS011;66777;52.282;5.960;2023-04-03T14:52:20;29.23;;;27.70;;
77612;SDS011;66777;52.282;5.960;2023-04-03T14:54:48;31.70;;;30.27;;
77612;SDS011;66777;52.282;5.960;2023-04-03T14:57:15;28.25;;;26.95;;
77612;SDS011;66777;52.282;5.960;2023-04-03T14:59:42;28.55;;;27.13;;
77612;SDS011;66777;52.282;5.960;2023-04-03T15:04:46;30.83;;;29.30;;
77612;SDS011;66777;52.282;5.960;2023-04-03T15:07:12;27.30;;;25.90;;
77612;SDS011;66777;52.282;5.960;2023-04-03T15:09:38;26.25;;;24.85;;
77612;SDS011;66777;52.282;5.960;2023-04-03T15:12:04;25.30;;;24.08;;
77612;SDS011;66777;52.282;5.960;2023-04-03T15:14:30;27.50;;;26.20;;
77612;SDS011;66777;52.282;5.960;2023-04-03T15:16:56;24.08;;;22.92;;
77612;SDS011;66777;52.282;5.960;2023-04-03T15:19:22;24.52;;;23.30;;
77612;SDS011;66777;52.282;5.960;2023-04-03T15:21:49;23.45;;;22.15;;
77612;SDS011;66777;52.282;5.960;2023-04-03T15:24:15;22.40;;;21.23;;
77612;SDS011;66777;52.282;5.960;2023-04-03T15:26:40;24.23;;;23.00;;
77612;SDS011;66777;52.282;5.960;2023-04-03T15:29:06;22.45;;;21.33;;
77612;SDS011;66777;52.282;5.960;2023-04-03T15:31:32;21.60;;;20.48;;
77612;SDS011;66777;52.282;5.960;2023-04-03T15:33:58;16.83;;;15.82;;
77612;SDS011;66777;52.282;5.960;2023-04-03T15:36:25;17.70;;;16.70;;
77612;SDS011;66777;52.282;5.960;2023-04-03T15:38:50;18.48;;;17.40;;
77612;SDS011;66777;52.282;5.960;2023-04-03T15:41:16;14.52;;;13.60;;
77612;SDS011;66777;52.282;5.960;2023-04-03T15:43:42;12.98;;;12.00;;
77612;SDS011;66777;52.282;5.960;2023-04-03T15:46:08;13.93;;;13.05;;
77612;SDS011;66777;52.282;5.960;2023-04-03T15:48:35;14.55;;;13.48;;
77612;SDS011;66777;52.282;5.960;2023-04-03T15:51:01;13.40;;;12.43;;
77612;SDS011;66777;52.282;5.960;2023-04-03T15:53:27;14.77;;;13.73;;
77612;SDS011;66777;52.282;5.960;2023-04-03T15:55:52;13.13;;;12.13;;
77612;SDS011;66777;52.282;5.960;2023-04-03T15:58:19;14.02;;;13.07;;
77612;SDS011;66777;52.282;5.960;2023-04-03T16:00:46;13.07;;;12.25;;
77612;SDS011;66777;52.282;5.960;2023-04-03T16:03:14;11.45;;;10.52;;
77612;SDS011;66777;52.282;5.960;2023-04-03T16:05:42;10.75;;;9.73;;
77612;SDS011;66777;52.282;5.960;2023-04-03T16:08:08;11.02;;;10.23;;
77612;SDS011;66777;52.282;5.960;2023-04-03T16:10:35;9.02;;;8.32;;
77612;SDS011;66777;52.282;5.960;2023-04-03T16:13:02;8.63;;;7.75;;
77612;SDS011;66777;52.282;5.960;2023-04-03T16:15:29;6.38;;;5.78;;
77612;SDS011;66777;52.282;5.960;2023-04-03T16:17:55;6.68;;;5.85;;
77612;SDS011;66777;52.282;5.960;2023-04-03T16:20:23;5.63;;;4.93;;
77612;SDS011;66777;52.282;5.960;2023-04-03T16:22:50;6.35;;;4.88;;
77612;SDS011;66777;52.282;5.960;2023-04-03T16:25:17;5.88;;;4.50;;
77612;SDS011;66777;52.282;5.960;2023-04-03T16:27:44;9.05;;;5.07;;
77612;SDS011;66777;52.282;5.960;2023-04-03T16:30:10;7.13;;;4.88;;
77612;SDS011;66777;52.282;5.960;2023-04-03T16:32:37;6.45;;;4.20;;
77612;SDS011;66777;52.282;5.960;2023-04-03T16:35:05;6.55;;;3.92;;
77612;SDS011;66777;52.282;5.960;2023-04-03T16:37:32;8.75;;;5.13;;
77612;SDS011;66777;52.282;5.960;2023-04-03T16:39:59;5.80;;;3.58;;
77612;SDS011;66777;52.282;5.960;2023-04-03T16:42:25;7.60;;;4.05;;
77612;SDS011;66777;52.282;5.960;2023-04-03T16:44:51;8.13;;;3.97;;
77612;SDS011;66777;52.282;5.960;2023-04-03T16:47:17;7.93;;;3.10;;
77612;SDS011;66777;52.282;5.960;2023-04-03T16:49:45;6.00;;;3.40;;
77612;SDS011;66777;52.282;5.960;2023-04-03T16:52:12;6.15;;;3.10;;
77612;SDS011;66777;52.282;5.960;2023-04-03T16:54:40;5.78;;;3.08;;
77612;SDS011;66777;52.282;5.960;2023-04-03T16:57:07;5.85;;;2.72;;
77612;SDS011;66777;52.282;5.960;2023-04-03T16:59:33;7.03;;;3.00;;
77612;SDS011;66777;52.282;5.960;2023-04-03T17:01:59;6.15;;;2.75;;
77612;SDS011;66777;52.282;5.960;2023-04-03T17:04:25;5.30;;;2.50;;
77612;SDS011;66777;52.282;5.960;2023-04-03T17:06:51;6.00;;;2.40;;